sensor_id;sensor_type;location;lat;lon;timestamp;pressure;altitude;pressure_sealevel;temperature;humidity
12178;BME280;6152;48.728;9.256;2022-07-31T00:00:43;97335.91;;;18.60;88.91
12178;BME280;6152;48.728;9.256;2022-07-31T00:03:10;97335.75;;;18.52;89.41
12178;BME280;6152;48.728;9.256;2022-07-31T00:05:36;97332.78;;;18.45;90.72
12178;BME280;6152;48.728;9.256;2022-07-31T00:08:03;97331.66;;;18.38;92.10
12178;BME280;6152;48.728;9.256;2022-07-31T00:10:29;97330.53;;;18.31;92.59
12178;BME280;6152;48.728;9.256;2022-07-31T00:12:56;97331.22;;;18.24;93.37
12178;BME280;6152;48.728;9.256;2022-07-31T00:15:22;97332.84;;;18.15;94.23
12178;BME280;6152;48.728;9.256;2022-07-31T00:17:49;97334.34;;;18.08;94.88
12178;BME280;6152;48.728;9.256;2022-07-31T00:20:16;97335.84;;;18.01;95.15
12178;BME280;6152;48.728;9.256;2022-07-31T00:22:44;97325.72;;;17.96;96.11
12178;BME280;6152;48.728;9.256;2022-07-31T00:25:12;97335.94;;;17.90;97.21
12178;BME280;6152;48.728;9.256;2022-07-31T00:27:39;97334.81;;;17.83;98.01
12178;BME280;6152;48.728;9.256;2022-07-31T00:30:06;97329.13;;;17.78;98.64
12178;BME280;6152;48.728;9.256;2022-07-31T00:32:33;97332.97;;;17.74;99.04
12178;BME280;6152;48.728;9.256;2022-07-31T00:34:59;97328.25;;;17.67;100.00
12178;BME280;6152;48.728;9.256;2022-07-31T00:37:26;97335.69;;;17.62;100.00
12178;BME280;6152;48.728;9.256;2022-07-31T00:39:52;97327.09;;;17.60;100.00
12178;BME280;6152;48.728;9.256;2022-07-31T00:42:20;97330.69;;;17.59;100.00
12178;BME280;6152;48.728;9.256;2022-07-31T00:44:46;97332.38;;;17.60;100.00
12178;BME280;6152;48.728;9.256;2022-07-31T00:47:13;97330.44;;;17.62;100.00
12178;BME280;6152;48.728;9.256;2022-07-31T00:49:39;97335.69;;;17.62;100.00
12178;BME280;6152;48.728;9.256;2022-07-31T00:52:06;97333.19;;;17.61;100.00
12178;BME280;6152;48.728;9.256;2022-07-31T00:54:32;97329.00;;;17.58;100.00
12178;BME280;6152;48.728;9.256;2022-07-31T00:56:59;97325.44;;;17.59;100.00
12178;BME280;6152;48.728;9.256;2022-07-31T00:59:27;97335.00;;;17.60;100.00
12178;BME280;6152;48.728;9.256;2022-07-31T01:01:53;97328.06;;;17.59;100.00
12178;BME280;6152;48.728;9.256;2022-07-31T01:04:20;97332.63;;;17.57;100.00
12178;BME280;6152;48.728;9.256;2022-07-31T01:06:46;97332.03;;;17.54;100.00
12178;BME280;6152;48.728;9.256;2022-07-31T01:09:12;97327.84;;;17.51;100.00
12178;BME280;6152;48.728;9.256;2022-07-31T01:14:36;97333.63;;;17.45;100.00
12178;BME280;6152;48.728;9.256;2022-07-31T01:17:05;97344.41;;;17.42;100.00
12178;BME280;6152;48.728;9.256;2022-07-31T01:19:38;97334.16;;;17.39;100.00
12178;BME280;6152;48.728;9.256;2022-07-31T01:31:01;97344.72;;;17.28;100.00
12178;BME280;6152;48.728;9.256;2022-07-31T01:33:31;97339.72;;;17.25;100.00
12178;BME280;6152;48.728;9.256;2022-07-31T01:36:05;97341.78;;;17.22;100.00
12178;BME280;6152;48.728;9.256;2022-07-31T01:38:37;97338.94;;;17.13;100.00
12178;BME280;6152;48.728;9.256;2022-07-31T01:41:12;97342.69;;;17.11;100.00
12178;BME280;6152;48.728;9.256;2022-07-31T01:43:41;97333.38;;;17.07;100.00
12178;BME280;6152;48.728;9.256;2022-07-31T01:46:11;97329.09;;;17.06;100.00
12178;BME280;6152;48.728;9.256;2022-07-31T01:48:39;97327.78;;;17.00;100.00
12178;BME280;6152;48.728;9.256;2022-07-31T01:51:07;97335.25;;;16.95;100.00
12178;BME280;6152;48.728;9.256;2022-07-31T01:53:34;97331.19;;;16.91;100.00
12178;BME280;6152;48.728;9.256;2022-07-31T01:56:02;97332.13;;;16.90;100.00
12178;BME280;6152;48.728;9.256;2022-07-31T01:58:32;97336.81;;;16.87;100.00
12178;BME280;6152;48.728;9.256;2022-07-31T02:01:01;97334.00;;;16.79;100.00
12178;BME280;6152;48.728;9.256;2022-07-31T02:03:28;97333.53;;;16.74;100.00
12178;BME280;6152;48.728;9.256;2022-07-31T02:05:55;97340.00;;;16.70;100.00
12178;BME280;6152;48.728;9.256;2022-07-31T02:08:22;97341.09;;;16.67;100.00
12178;BME280;6152;48.728;9.256;2022-07-31T02:10:50;97335.00;;;16.66;100.00
12178;BME280;6152;48.728;9.256;2022-07-31T02:13:18;97337.88;;;16.63;100.00
12178;BME280;6152;48.728;9.256;2022-07-31T02:15:46;97335.75;;;16.57;100.00
12178;BME280;6152;48.728;9.256;2022-07-31T02:18:14;97335.97;;;16.54;100.00
12178;BME280;6152;48.728;9.256;2022-07-31T02:20:41;97337.88;;;16.52;100.00
12178;BME280;6152;48.728;9.256;2022-07-31T02:23:07;97331.19;;;16.48;100.00
12178;BME280;6152;48.728;9.256;2022-07-31T02:25:34;97334.91;;;16.46;100.00
12178;BME280;6152;48.728;9.256;2022-07-31T02:28:09;97334.31;;;16.42;100.00
12178;BME280;6152;48.728;9.256;2022-07-31T02:30:39;97331.94;;;16.39;100.00
12178;BME280;6152;48.728;9.256;2022-07-31T02:33:19;97329.66;;;16.35;100.00
12178;BME280;6152;48.728;9.256;2022-07-31T02:35:48;97323.56;;;16.34;100.00
12178;BME280;6152;48.728;9.256;2022-07-31T02:38:17;97327.44;;;16.30;100.00
12178;BME280;6152;48.728;9.256;2022-07-31T02:40:44;97327.69;;;16.27;100.00
12178;BME280;6152;48.728;9.256;2022-07-31T02:43:11;97326.84;;;16.27;100.00
12178;BME280;6152;48.728;9.256;2022-07-31T02:45:39;97326.00;;;16.26;100.00
12178;BME280;6152;48.728;9.256;2022-07-31T02:48:06;97334.81;;;16.25;100.00
12178;BME280;6152;48.728;9.256;2022-07-31T02:50:32;97323.13;;;16.18;100.00
12178;BME280;6152;48.728;9.256;2022-07-31T02:52:59;97317.88;;;16.18;100.00
12178;BME280;6152;48.728;9.256;2022-07-31T02:55:26;97323.38;;;16.15;100.00
12178;BME280;6152;48.728;9.256;2022-07-31T02:57:52;97320.16;;;16.11;100.00
12178;BME280;6152;48.728;9.256;2022-07-31T03:00:19;97321.25;;;16.09;100.00
12178;BME280;6152;48.728;9.256;2022-07-31T03:02:53;97315.28;;;16.07;100.00
12178;BME280;6152;48.728;9.256;2022-07-31T03:05:20;97310.28;;;16.04;100.00
12178;BME280;6152;48.728;9.256;2022-07-31T03:07:46;97318.63;;;15.98;100.00
12178;BME280;6152;48.728;9.256;2022-07-31T03:10:13;97315.66;;;15.91;100.00
12178;BME280;6152;48.728;9.256;2022-07-31T03:12:45;97320.56;;;15.85;100.00
12178;BME280;6152;48.728;9.256;2022-07-31T03:15:15;97323.53;;;15.80;100.00
12178;BME280;6152;48.728;9.256;2022-07-31T03:17:43;97324.88;;;15.75;100.00
12178;BME280;6152;48.728;9.256;2022-07-31T03:20:10;97324.28;;;15.71;100.00
12178;BME280;6152;48.728;9.256;2022-07-31T03:22:37;97334.41;;;15.64;100.00
12178;BME280;6152;48.728;9.256;2022-07-31T03:25:05;97325.81;;;15.62;100.00
12178;BME280;6152;48.728;9.256;2022-07-31T03:27:31;97332.13;;;15.60;100.00
12178;BME280;6152;48.728;9.256;2022-07-31T03:29:58;97330.44;;;15.59;100.00
12178;BME280;6152;48.728;9.256;2022-07-31T03:32:24;97321.03;;;15.56;100.00
12178;BME280;6152;48.728;9.256;2022-07-31T03:34:50;97327.13;;;15.57;100.00
12178;BME280;6152;48.728;9.256;2022-07-31T03:37:16;97326.63;;;15.52;100.00
12178;BME280;6152;48.728;9.256;2022-07-31T03:39:43;97332.22;;;15.47;100.00
12178;BME280;6152;48.728;9.256;2022-07-31T03:42:09;97325.53;;;15.43;100.00
12178;BME280;6152;48.728;9.256;2022-07-31T03:44:37;97322.16;;;15.41;100.00
12178;BME280;6152;48.728;9.256;2022-07-31T03:47:05;97322.16;;;15.41;100.00
12178;BME280;6152;48.728;9.256;2022-07-31T03:49:32;97317.16;;;15.38;100.00
12178;BME280;6152;48.728;9.256;2022-07-31T03:51:58;97318.84;;;15.39;100.00
12178;BME280;6152;48.728;9.256;2022-07-31T03:54:25;97326.59;;;15.41;100.00
12178;BME280;6152;48.728;9.256;2022-07-31T03:56:52;97321.56;;;15.38;100.00
12178;BME280;6152;48.728;9.256;2022-07-31T03:59:21;97326.00;;;15.37;100.00
12178;BME280;6152;48.728;9.256;2022-07-31T04:01:48;97328.84;;;15.34;100.00
12178;BME280;6152;48.728;9.256;2022-07-31T04:04:16;97329.06;;;15.31;100.00
12178;BME280;6152;48.728;9.256;2022-07-31T04:06:42;97331.69;;;15.31;100.00
12178;BME280;6152;48.728;9.256;2022-07-31T04:09:09;97328.38;;;15.29;100.00
12178;BME280;6152;48.728;9.256;2022-07-31T04:11:35;97325.84;;;15.28;100.00
12178;BME280;6152;48.728;9.256;2022-07-31T04:14:01;97328.38;;;15.29;100.00
12178;BME280;6152;48.728;9.256;2022-07-31T04:16:27;97326.44;;;15.31;100.00
12178;BME280;6152;48.728;9.256;2022-07-31T04:18:53;97328.13;;;15.32;100.00
12178;BME280;6152;48.728;9.256;2022-07-31T04:21:19;97333.13;;;15.35;100.00
12178;BME280;6152;48.728;9.256;2022-07-31T04:23:45;97328.63;;;15.37;100.00
12178;BME280;6152;48.728;9.256;2022-07-31T04:26:11;97334.34;;;15.42;100.00
12178;BME280;6152;48.728;9.256;2022-07-31T04:28:38;97334.09;;;15.45;100.00
12178;BME280;6152;48.728;9.256;2022-07-31T04:31:04;97333.16;;;15.46;100.00
12178;BME280;6152;48.728;9.256;2022-07-31T04:33:30;97333.91;;;15.48;100.00
12178;BME280;6152;48.728;9.256;2022-07-31T04:35:56;97331.28;;;15.48;100.00
12178;BME280;6152;48.728;9.256;2022-07-31T04:38:22;97329.38;;;15.50;100.00
12178;BME280;6152;48.728;9.256;2022-07-31T04:40:48;97332.59;;;15.54;100.00
12178;BME280;6152;48.728;9.256;2022-07-31T04:43:15;97336.06;;;15.54;100.00
12178;BME280;6152;48.728;9.256;2022-07-31T04:45:42;97343.94;;;15.54;100.00
12178;BME280;6152;48.728;9.256;2022-07-31T04:48:09;97347.88;;;15.60;100.00
12178;BME280;6152;48.728;9.256;2022-07-31T04:50:35;97346.78;;;15.62;100.00
12178;BME280;6152;48.728;9.256;2022-07-31T04:53:02;97350.16;;;15.64;100.00
12178;BME280;6152;48.728;9.256;2022-07-31T04:55:28;97353.25;;;15.70;100.00
12178;BME280;6152;48.728;9.256;2022-07-31T04:57:55;97356.47;;;15.84;100.00
12178;BME280;6152;48.728;9.256;2022-07-31T05:00:21;97354.69;;;15.85;100.00
12178;BME280;6152;48.728;9.256;2022-07-31T05:02:47;97352.31;;;15.82;100.00
12178;BME280;6152;48.728;9.256;2022-07-31T05:05:13;97352.28;;;15.93;100.00
12178;BME280;6152;48.728;9.256;2022-07-31T05:07:39;97355.63;;;16.06;100.00
12178;BME280;6152;48.728;9.256;2022-07-31T05:10:05;97350.13;;;16.20;100.00
12178;BME280;6152;48.728;9.256;2022-07-31T05:12:32;97350.94;;;16.32;100.00
12178;BME280;6152;48.728;9.256;2022-07-31T05:14:58;97351.50;;;16.46;100.00
12178;BME280;6152;48.728;9.256;2022-07-31T05:17:24;97352.69;;;16.64;100.00
12178;BME280;6152;48.728;9.256;2022-07-31T05:19:50;97360.72;;;16.84;100.00
12178;BME280;6152;48.728;9.256;2022-07-31T05:22:16;97359.00;;;16.94;100.00
12178;BME280;6152;48.728;9.256;2022-07-31T05:24:42;97350.81;;;17.08;100.00
12178;BME280;6152;48.728;9.256;2022-07-31T05:27:08;97349.09;;;17.18;100.00
12178;BME280;6152;48.728;9.256;2022-07-31T05:29:35;97351.78;;;17.28;100.00
12178;BME280;6152;48.728;9.256;2022-07-31T05:32:01;97348.78;;;17.32;100.00
12178;BME280;6152;48.728;9.256;2022-07-31T05:34:28;97342.88;;;17.19;100.00
12178;BME280;6152;48.728;9.256;2022-07-31T05:36:54;97349.72;;;17.10;100.00
12178;BME280;6152;48.728;9.256;2022-07-31T05:39:20;97354.63;;;17.15;100.00
12178;BME280;6152;48.728;9.256;2022-07-31T05:41:46;97356.41;;;17.35;100.00
12178;BME280;6152;48.728;9.256;2022-07-31T05:44:14;97348.66;;;17.54;100.00
12178;BME280;6152;48.728;9.256;2022-07-31T05:46:40;97353.16;;;17.63;100.00
12178;BME280;6152;48.728;9.256;2022-07-31T05:49:06;97346.84;;;17.76;100.00
12178;BME280;6152;48.728;9.256;2022-07-31T05:51:32;97349.91;;;17.81;100.00
12178;BME280;6152;48.728;9.256;2022-07-31T05:53:58;97351.06;;;17.88;100.00
12178;BME280;6152;48.728;9.256;2022-07-31T05:56:24;97354.13;;;17.93;100.00
12178;BME280;6152;48.728;9.256;2022-07-31T05:58:52;97356.41;;;18.07;100.00
12178;BME280;6152;48.728;9.256;2022-07-31T06:01:18;97347.84;;;18.24;100.00
12178;BME280;6152;48.728;9.256;2022-07-31T06:03:44;97348.16;;;18.31;100.00
12178;BME280;6152;48.728;9.256;2022-07-31T06:06:10;97347.75;;;18.35;100.00
12178;BME280;6152;48.728;9.256;2022-07-31T06:08:36;97350.47;;;18.54;100.00
12178;BME280;6152;48.728;9.256;2022-07-31T06:11:03;97352.41;;;18.62;100.00
12178;BME280;6152;48.728;9.256;2022-07-31T06:13:29;97355.19;;;18.51;99.05
12178;BME280;6152;48.728;9.256;2022-07-31T06:15:55;97364.28;;;18.37;100.00
12178;BME280;6152;48.728;9.256;2022-07-31T06:18:22;97370.13;;;18.41;100.00
12178;BME280;6152;48.728;9.256;2022-07-31T06:20:48;97370.63;;;18.35;100.00
12178;BME280;6152;48.728;9.256;2022-07-31T06:23:14;97370.34;;;18.28;100.00
12178;BME280;6152;48.728;9.256;2022-07-31T06:25:40;97370.78;;;18.33;100.00
12178;BME280;6152;48.728;9.256;2022-07-31T06:28:07;97368.16;;;18.33;100.00
12178;BME280;6152;48.728;9.256;2022-07-31T06:30:33;97369.88;;;18.53;100.00
12178;BME280;6152;48.728;9.256;2022-07-31T06:32:59;97372.97;;;18.78;100.00
12178;BME280;6152;48.728;9.256;2022-07-31T06:35:25;97373.41;;;18.92;100.00
12178;BME280;6152;48.728;9.256;2022-07-31T06:37:51;97378.41;;;19.05;100.00
12178;BME280;6152;48.728;9.256;2022-07-31T06:40:17;97375.22;;;19.11;98.84
12178;BME280;6152;48.728;9.256;2022-07-31T06:42:43;97382.16;;;19.12;96.16
12178;BME280;6152;48.728;9.256;2022-07-31T06:45:10;97388.25;;;19.22;96.68
12178;BME280;6152;48.728;9.256;2022-07-31T06:47:37;97381.75;;;19.45;96.15
12178;BME280;6152;48.728;9.256;2022-07-31T06:50:04;97381.59;;;19.56;95.23
12178;BME280;6152;48.728;9.256;2022-07-31T06:52:31;97384.09;;;19.48;95.29
12178;BME280;6152;48.728;9.256;2022-07-31T06:54:57;97388.00;;;19.54;94.87
12178;BME280;6152;48.728;9.256;2022-07-31T06:57:23;97376.44;;;19.64;94.84
12178;BME280;6152;48.728;9.256;2022-07-31T06:59:49;97383.72;;;19.99;94.53
12178;BME280;6152;48.728;9.256;2022-07-31T07:02:15;97375.06;;;19.97;92.84
12178;BME280;6152;48.728;9.256;2022-07-31T07:04:42;97371.72;;;20.05;93.57
12178;BME280;6152;48.728;9.256;2022-07-31T07:07:08;97380.81;;;20.30;94.72
12178;BME280;6152;48.728;9.256;2022-07-31T07:09:34;97375.31;;;20.04;91.50
12178;BME280;6152;48.728;9.256;2022-07-31T07:12:00;97372.81;;;20.12;91.71
12178;BME280;6152;48.728;9.256;2022-07-31T07:14:26;97369.69;;;20.26;90.06
12178;BME280;6152;48.728;9.256;2022-07-31T07:16:52;97373.25;;;20.44;89.54
12178;BME280;6152;48.728;9.256;2022-07-31T07:19:19;97371.16;;;20.38;87.23
12178;BME280;6152;48.728;9.256;2022-07-31T07:21:45;97365.38;;;20.25;85.38
12178;BME280;6152;48.728;9.256;2022-07-31T07:24:11;97361.34;;;20.21;87.32
12178;BME280;6152;48.728;9.256;2022-07-31T07:26:37;97369.16;;;20.50;87.52
12178;BME280;6152;48.728;9.256;2022-07-31T07:29:03;97370.13;;;20.94;86.80
12178;BME280;6152;48.728;9.256;2022-07-31T07:31:30;97371.66;;;21.14;83.04
12178;BME280;6152;48.728;9.256;2022-07-31T07:33:56;97367.50;;;21.29;79.88
12178;BME280;6152;48.728;9.256;2022-07-31T07:36:23;97368.91;;;21.41;79.13
12178;BME280;6152;48.728;9.256;2022-07-31T07:38:49;97372.66;;;21.56;78.97
12178;BME280;6152;48.728;9.256;2022-07-31T07:41:15;97360.03;;;21.94;77.06
12178;BME280;6152;48.728;9.256;2022-07-31T07:43:41;97367.84;;;22.03;76.81
12178;BME280;6152;48.728;9.256;2022-07-31T07:46:07;97367.53;;;22.40;75.91
12178;BME280;6152;48.728;9.256;2022-07-31T07:48:33;97368.00;;;22.70;72.52
12178;BME280;6152;48.728;9.256;2022-07-31T07:51:00;97365.38;;;22.94;68.07
12178;BME280;6152;48.728;9.256;2022-07-31T07:53:26;97363.56;;;23.10;66.70
12178;BME280;6152;48.728;9.256;2022-07-31T07:55:52;97363.09;;;23.23;66.71
12178;BME280;6152;48.728;9.256;2022-07-31T07:58:18;97369.91;;;23.34;64.36
12178;BME280;6152;48.728;9.256;2022-07-31T08:00:45;97360.31;;;23.65;64.45
12178;BME280;6152;48.728;9.256;2022-07-31T08:03:11;97362.44;;;23.86;62.67
12178;BME280;6152;48.728;9.256;2022-07-31T08:05:37;97362.94;;;23.73;61.58
12178;BME280;6152;48.728;9.256;2022-07-31T08:08:04;97369.41;;;23.62;60.16
12178;BME280;6152;48.728;9.256;2022-07-31T08:10:30;97367.06;;;23.35;60.50
12178;BME280;6152;48.728;9.256;2022-07-31T08:12:56;97361.09;;;23.25;60.69
12178;BME280;6152;48.728;9.256;2022-07-31T08:15:23;97362.28;;;23.63;61.02
12178;BME280;6152;48.728;9.256;2022-07-31T08:17:50;97357.47;;;23.75;57.20
12178;BME280;6152;48.728;9.256;2022-07-31T08:20:17;97360.72;;;24.01;59.82
12178;BME280;6152;48.728;9.256;2022-07-31T08:22:43;97361.25;;;24.43;60.16
12178;BME280;6152;48.728;9.256;2022-07-31T08:25:09;97357.41;;;24.77;56.45
12178;BME280;6152;48.728;9.256;2022-07-31T08:27:35;97361.03;;;24.92;53.72
12178;BME280;6152;48.728;9.256;2022-07-31T08:30:04;97356.72;;;25.36;52.79
12178;BME280;6152;48.728;9.256;2022-07-31T08:32:31;97357.59;;;25.51;51.55
12178;BME280;6152;48.728;9.256;2022-07-31T08:34:57;97352.13;;;25.68;52.00
12178;BME280;6152;48.728;9.256;2022-07-31T08:37:23;97354.09;;;26.03;51.43
12178;BME280;6152;48.728;9.256;2022-07-31T08:39:50;97358.25;;;26.49;49.80
12178;BME280;6152;48.728;9.256;2022-07-31T08:42:17;97353.84;;;26.78;48.89
12178;BME280;6152;48.728;9.256;2022-07-31T08:44:44;97356.59;;;26.99;47.67
12178;BME280;6152;48.728;9.256;2022-07-31T08:47:14;97347.50;;;27.36;44.97
12178;BME280;6152;48.728;9.256;2022-07-31T08:49:46;97345.50;;;27.66;44.81
12178;BME280;6152;48.728;9.256;2022-07-31T08:52:23;97347.50;;;27.85;43.56
12178;BME280;6152;48.728;9.256;2022-07-31T08:54:51;97341.06;;;28.48;43.17
12178;BME280;6152;48.728;9.256;2022-07-31T08:57:18;97336.44;;;29.96;40.47
12178;BME280;6152;48.728;9.256;2022-07-31T08:59:45;97331.56;;;32.00;37.54
12178;BME280;6152;48.728;9.256;2022-07-31T09:02:12;97330.44;;;32.99;34.24
12178;BME280;6152;48.728;9.256;2022-07-31T09:04:40;97329.97;;;33.85;32.82
12178;BME280;6152;48.728;9.256;2022-07-31T09:07:09;97325.19;;;34.62;31.78
12178;BME280;6152;48.728;9.256;2022-07-31T09:09:42;97321.22;;;34.92;31.55
12178;BME280;6152;48.728;9.256;2022-07-31T09:12:09;97317.00;;;35.75;30.14
12178;BME280;6152;48.728;9.256;2022-07-31T09:14:35;97321.38;;;36.53;28.21
12178;BME280;6152;48.728;9.256;2022-07-31T09:17:03;97319.09;;;37.41;26.75
12178;BME280;6152;48.728;9.256;2022-07-31T09:19:43;97313.16;;;38.08;25.29
12178;BME280;6152;48.728;9.256;2022-07-31T09:22:24;97305.41;;;38.89;25.06
12178;BME280;6152;48.728;9.256;2022-07-31T09:24:51;97300.28;;;39.99;23.63
12178;BME280;6152;48.728;9.256;2022-07-31T09:27:17;97300.84;;;40.80;22.64
12178;BME280;6152;48.728;9.256;2022-07-31T09:29:45;97299.28;;;41.57;21.17
12178;BME280;6152;48.728;9.256;2022-07-31T09:32:19;97293.00;;;41.56;20.45
12178;BME280;6152;48.728;9.256;2022-07-31T09:34:47;97293.44;;;41.97;19.98
12178;BME280;6152;48.728;9.256;2022-07-31T09:37:18;97289.88;;;42.92;19.20
12178;BME280;6152;48.728;9.256;2022-07-31T09:39:49;97291.69;;;43.01;19.21
12178;BME280;6152;48.728;9.256;2022-07-31T09:42:16;97289.44;;;43.73;18.40
12178;BME280;6152;48.728;9.256;2022-07-31T09:44:44;97279.00;;;42.68;19.28
12178;BME280;6152;48.728;9.256;2022-07-31T09:47:24;97283.41;;;43.06;18.83
12178;BME280;6152;48.728;9.256;2022-07-31T09:49:59;97285.94;;;41.84;20.06
12178;BME280;6152;48.728;9.256;2022-07-31T09:52:27;97287.84;;;41.55;20.33
12178;BME280;6152;48.728;9.256;2022-07-31T09:57:32;97276.72;;;43.12;18.25
12178;BME280;6152;48.728;9.256;2022-07-31T10:00:00;97265.03;;;44.17;17.75
12178;BME280;6152;48.728;9.256;2022-07-31T10:02:28;97273.22;;;43.07;18.92
12178;BME280;6152;48.728;9.256;2022-07-31T10:04:56;97266.28;;;41.82;19.54
12178;BME280;6152;48.728;9.256;2022-07-31T10:07:24;97265.81;;;40.43;19.66
12178;BME280;6152;48.728;9.256;2022-07-31T10:09:55;97249.59;;;37.77;23.05
12178;BME280;6152;48.728;9.256;2022-07-31T10:12:22;97252.22;;;38.04;23.11
12178;BME280;6152;48.728;9.256;2022-07-31T10:14:54;97239.34;;;38.41;22.84
12178;BME280;6152;48.728;9.256;2022-07-31T10:17:26;97248.81;;;39.26;22.70
12178;BME280;6152;48.728;9.256;2022-07-31T10:20:02;97238.19;;;39.35;22.25
12178;BME280;6152;48.728;9.256;2022-07-31T10:22:34;97242.69;;;40.20;21.17
12178;BME280;6152;48.728;9.256;2022-07-31T10:25:04;97233.72;;;42.04;19.85
12178;BME280;6152;48.728;9.256;2022-07-31T10:27:31;97236.56;;;42.23;18.74
12178;BME280;6152;48.728;9.256;2022-07-31T10:30:00;97245.88;;;41.93;19.59
12178;BME280;6152;48.728;9.256;2022-07-31T10:32:27;97232.69;;;42.48;19.35
12178;BME280;6152;48.728;9.256;2022-07-31T10:34:53;97236.13;;;41.87;19.73
12178;BME280;6152;48.728;9.256;2022-07-31T10:37:27;97237.22;;;41.23;20.21
12178;BME280;6152;48.728;9.256;2022-07-31T10:43:14;97231.09;;;38.21;22.16
12178;BME280;6152;48.728;9.256;2022-07-31T10:45:52;97232.81;;;36.41;24.30
12178;BME280;6152;48.728;9.256;2022-07-31T10:48:19;97237.19;;;34.99;25.58
12178;BME280;6152;48.728;9.256;2022-07-31T10:51:24;97225.13;;;34.10;26.47
12178;BME280;6152;48.728;9.256;2022-07-31T10:54:03;97229.75;;;33.28;27.94
12178;BME280;6152;48.728;9.256;2022-07-31T10:56:44;97232.69;;;33.15;27.41
12178;BME280;6152;48.728;9.256;2022-07-31T10:59:11;97215.00;;;34.40;26.23
12178;BME280;6152;48.728;9.256;2022-07-31T11:01:50;97228.78;;;34.67;26.67
12178;BME280;6152;48.728;9.256;2022-07-31T11:04:32;97223.63;;;34.26;27.60
12178;BME280;6152;48.728;9.256;2022-07-31T11:06:58;97223.72;;;33.68;28.05
12178;BME280;6152;48.728;9.256;2022-07-31T11:09:27;97224.97;;;33.30;28.33
12178;BME280;6152;48.728;9.256;2022-07-31T11:11:54;97226.97;;;32.82;28.20
12178;BME280;6152;48.728;9.256;2022-07-31T11:14:34;97213.97;;;31.94;30.30
12178;BME280;6152;48.728;9.256;2022-07-31T11:17:01;97213.16;;;31.58;30.37
12178;BME280;6152;48.728;9.256;2022-07-31T11:19:37;97219.75;;;31.12;31.08
12178;BME280;6152;48.728;9.256;2022-07-31T11:22:11;97215.31;;;30.99;31.08
12178;BME280;6152;48.728;9.256;2022-07-31T11:24:37;97214.06;;;30.95;31.36
12178;BME280;6152;48.728;9.256;2022-07-31T11:27:04;97211.09;;;30.79;32.00
12178;BME280;6152;48.728;9.256;2022-07-31T11:29:31;97202.66;;;30.69;32.24
12178;BME280;6152;48.728;9.256;2022-07-31T11:34:48;97207.69;;;32.00;31.89
12178;BME280;6152;48.728;9.256;2022-07-31T11:37:22;97201.34;;;32.61;30.64
12178;BME280;6152;48.728;9.256;2022-07-31T11:39:50;97193.69;;;32.88;29.09
12178;BME280;6152;48.728;9.256;2022-07-31T11:42:18;97194.91;;;33.85;29.00
12178;BME280;6152;48.728;9.256;2022-07-31T11:44:44;97190.06;;;35.28;26.52
12178;BME280;6152;48.728;9.256;2022-07-31T11:47:11;97191.44;;;35.86;25.77
12178;BME280;6152;48.728;9.256;2022-07-31T11:49:37;97194.53;;;36.38;24.82
12178;BME280;6152;48.728;9.256;2022-07-31T11:52:06;97185.38;;;38.13;23.31
12178;BME280;6152;48.728;9.256;2022-07-31T11:54:33;97177.13;;;39.56;21.43
12178;BME280;6152;48.728;9.256;2022-07-31T11:57:00;97174.13;;;39.17;21.43
12178;BME280;6152;48.728;9.256;2022-07-31T11:59:33;97168.06;;;37.35;23.40
12178;BME280;6152;48.728;9.256;2022-07-31T12:02:12;97164.81;;;39.79;21.47
12178;BME280;6152;48.728;9.256;2022-07-31T12:04:39;97161.97;;;40.09;21.61
12178;BME280;6152;48.728;9.256;2022-07-31T12:07:08;97165.84;;;39.98;20.92
12178;BME280;6152;48.728;9.256;2022-07-31T12:09:36;97155.75;;;39.99;21.11
12178;BME280;6152;48.728;9.256;2022-07-31T12:12:06;97161.03;;;38.59;22.07
12178;BME280;6152;48.728;9.256;2022-07-31T12:14:34;97159.66;;;37.37;24.59
12178;BME280;6152;48.728;9.256;2022-07-31T12:17:02;97166.50;;;36.27;25.67
12178;BME280;6152;48.728;9.256;2022-07-31T12:19:31;97158.78;;;35.76;25.63
12178;BME280;6152;48.728;9.256;2022-07-31T12:21:58;97155.78;;;36.37;24.45
12178;BME280;6152;48.728;9.256;2022-07-31T12:24:25;97159.53;;;36.90;23.35
12178;BME280;6152;48.728;9.256;2022-07-31T12:26:54;97152.88;;;36.01;24.15
12178;BME280;6152;48.728;9.256;2022-07-31T12:29:42;97142.22;;;35.72;25.28
12178;BME280;6152;48.728;9.256;2022-07-31T12:32:08;97134.06;;;35.51;25.42
12178;BME280;6152;48.728;9.256;2022-07-31T12:37:16;97140.34;;;34.68;26.75
12178;BME280;6152;48.728;9.256;2022-07-31T12:39:50;97137.44;;;34.13;27.21
12178;BME280;6152;48.728;9.256;2022-07-31T12:42:37;97135.19;;;33.46;28.69
12178;BME280;6152;48.728;9.256;2022-07-31T12:45:04;97133.00;;;33.20;28.46
12178;BME280;6152;48.728;9.256;2022-07-31T12:47:32;97131.25;;;32.73;28.77
12178;BME280;6152;48.728;9.256;2022-07-31T12:50:00;97121.97;;;32.27;31.15
12178;BME280;6152;48.728;9.256;2022-07-31T12:52:28;97129.22;;;32.57;30.77
12178;BME280;6152;48.728;9.256;2022-07-31T12:55:00;97124.00;;;32.62;29.52
12178;BME280;6152;48.728;9.256;2022-07-31T12:57:28;97121.22;;;31.90;30.41
12178;BME280;6152;48.728;9.256;2022-07-31T12:59:54;97115.47;;;31.50;30.61
12178;BME280;6152;48.728;9.256;2022-07-31T13:02:20;97112.25;;;31.42;31.31
12178;BME280;6152;48.728;9.256;2022-07-31T13:04:46;97107.78;;;31.36;31.36
12178;BME280;6152;48.728;9.256;2022-07-31T13:07:13;97104.88;;;31.37;31.76
12178;BME280;6152;48.728;9.256;2022-07-31T13:09:42;97102.78;;;31.39;31.92
12178;BME280;6152;48.728;9.256;2022-07-31T13:12:08;97101.44;;;31.30;32.02
12178;BME280;6152;48.728;9.256;2022-07-31T13:14:34;97107.06;;;31.04;31.76
12178;BME280;6152;48.728;9.256;2022-07-31T13:17:00;97087.44;;;30.54;32.55
12178;BME280;6152;48.728;9.256;2022-07-31T13:19:26;97095.22;;;30.62;32.56
12178;BME280;6152;48.728;9.256;2022-07-31T13:21:53;97082.72;;;30.49;32.64
12178;BME280;6152;48.728;9.256;2022-07-31T13:24:20;97085.84;;;30.71;33.29
12178;BME280;6152;48.728;9.256;2022-07-31T13:26:50;97079.31;;;30.85;32.12
12178;BME280;6152;48.728;9.256;2022-07-31T13:29:16;97070.91;;;31.00;32.40
12178;BME280;6152;48.728;9.256;2022-07-31T13:31:43;97076.38;;;31.12;32.27